Sachse's Hourly Summary for Sunday, July 8, 2018
Hour Temp
(f)
RH
(%)
Solar Rad.
(MJ/m2)
Rainfall
(in)
Wind
(mph)
7/8/2018 12:00 AM 82 57 0 0 1.58
7/8/2018 1:00 AM 80 66 0 0 0.29
7/8/2018 2:00 AM 74 72 0 0 0.3
7/8/2018 3:00 AM 76 82 0 0 0
7/8/2018 4:00 AM 75 82 0 0 0
7/8/2018 5:00 AM 74 86 0 0 0
7/8/2018 6:00 AM 74 85 0 0 0
7/8/2018 7:00 AM 74 85 0.03 0 0
7/8/2018 8:00 AM 76 75 0.42 0 1.48
7/8/2018 9:00 AM 79 72 1.01 0 2.06
7/8/2018 10:00 AM 82 63 1.58 0 2.31
7/8/2018 11:00 AM 84 58 2.16 0 3.21
7/8/2018 12:00 PM 87 53 2.47 0 3.35
7/8/2018 1:00 PM 89 46 2.76 0 4.17
7/8/2018 2:00 PM 90 44 2.2 0 4.57
7/8/2018 3:00 PM 91 36 2.33 0 5.19
7/8/2018 4:00 PM 92 36 1.98 0 6.26
7/8/2018 5:00 PM 92 34 1.5 0 5.34
7/8/2018 6:00 PM 91 34 1.17 0 5.72
7/8/2018 7:00 PM 89 47 1.13 0 6.91
7/8/2018 8:00 PM 87 50 0.46 0 5.64
7/8/2018 9:00 PM 85 57 0.06 0 4.04
7/8/2018 10:00 PM 79 64 0 0.01 1.1
7/8/2018 11:00 PM 79 68 0 0 0.05
Data Summary 82 60 21.26 0.01 2.65